Time;durP1;ratioP1;P1;durP2;ratioP2;P2;SDS_P1;SDS_P2;PMS_P1;PMS_P2;Temp;Humidity;BMP_temperature;BMP_pressure;BME280_temperature;BME280_humidity;BME280_pressure;Samples;Min_cycle;Max_cycle;Signal;HPM_P1;HPM_P2
2021/01/12 00:01:41;;;;;;;46.05;24.15;;;7.10;99.90;;;;;;5028276;28;20107;-73
2021/01/12 00:04:06;;;;;;;41.30;20.15;;;7.20;99.90;;;;;;5030739;28;20054;-76
2021/01/12 00:06:32;;;;;;;42.40;22.52;;;7.10;99.90;;;;;;5021011;28;20026;-73
2021/01/12 00:08:58;;;;;;;43.97;21.77;;;7.20;99.90;;;;;;5029649;28;20017;-74
2021/01/12 00:11:24;;;;;;;38.25;19.95;;;7.20;99.90;;;;;;5031420;28;20029;-75
2021/01/12 00:13:49;;;;;;;43.83;18.42;;;7.20;99.90;;;;;;5024087;28;20155;-74
2021/01/12 00:16:20;;;;;;;35.80;20.20;;;7.20;99.90;;;;;;5027402;28;20030;-81
2021/01/12 00:18:47;;;;;;;39.92;20.90;;;7.20;99.90;;;;;;5027176;28;20097;-83
2021/01/12 00:21:16;;;;;;;37.60;18.42;;;7.30;99.90;;;;;;5026467;28;20017;-78
2021/01/12 00:23:42;;;;;;;36.45;19.85;;;7.30;99.90;;;;;;5029396;28;20028;-78
2021/01/12 00:26:08;;;;;;;32.63;17.50;;;7.30;99.90;;;;;;5028476;28;20025;-75
2021/01/12 00:28:35;;;;;;;38.20;20.08;;;7.30;99.90;;;;;;5025338;28;20049;-77
2021/01/12 00:31:04;;;;;;;36.60;18.20;;;7.30;99.90;;;;;;5029959;28;20065;-76
2021/01/12 00:33:32;;;;;;;32.22;17.70;;;7.30;99.90;;;;;;5029189;28;20080;-75
2021/01/12 00:36:04;;;;;;;36.58;19.55;;;7.30;99.90;;;;;;5025255;28;20024;-76
2021/01/12 00:38:29;;;;;;;34.75;17.67;;;7.30;99.90;;;;;;5025855;28;20026;-81
2021/01/12 00:40:55;;;;;;;33.25;17.60;;;7.30;99.90;;;;;;5035758;28;20079;-79
2021/01/12 00:43:23;;;;;;;30.63;16.50;;;7.30;99.90;;;;;;5026497;28;20494;-75
2021/01/12 00:45:50;;;;;;;29.05;15.10;;;7.30;99.90;;;;;;5020496;28;20041;-84
2021/01/12 00:48:15;;;;;;;30.02;14.48;;;7.30;99.90;;;;;;5021724;28;20501;-78
2021/01/12 00:50:41;;;;;;;29.23;15.52;;;7.30;99.90;;;;;;5021145;28;20026;-76
2021/01/12 00:53:06;;;;;;;27.20;14.35;;;7.30;99.90;;;;;;5023943;28;20632;-79
2021/01/12 00:55:32;;;;;;;29.70;14.80;;;7.40;99.90;;;;;;5021700;28;20033;-80
2021/01/12 00:57:58;;;;;;;29.40;14.38;;;7.40;99.90;;;;;;5027198;28;20021;-74
2021/01/12 01:00:24;;;;;;;26.15;12.60;;;7.40;99.90;;;;;;5027147;28;20026;-78
2021/01/12 01:02:50;;;;;;;23.23;13.48;;;7.30;99.90;;;;;;5038595;28;20026;-80
2021/01/12 01:05:16;;;;;;;25.42;12.95;;;7.40;99.90;;;;;;5031786;28;20355;-77
2021/01/12 01:07:47;;;;;;;29.83;13.50;;;7.40;99.90;;;;;;5024300;28;20080;-78
2021/01/12 01:10:14;;;;;;;25.63;13.57;;;7.40;99.90;;;;;;5031171;28;20025;-76
2021/01/12 01:12:40;;;;;;;32.20;15.73;;;7.40;99.90;;;;;;5028083;28;20032;-80
2021/01/12 01:15:06;;;;;;;27.83;16.40;;;7.50;99.90;;;;;;5026342;28;20041;-79
2021/01/12 01:17:35;;;;;;;24.52;14.52;;;7.50;99.90;;;;;;5028068;28;20029;-77
2021/01/12 01:20:02;;;;;;;24.15;14.07;;;7.50;99.90;;;;;;5020283;28;20026;-75
2021/01/12 01:22:27;;;;;;;24.40;13.40;;;7.40;99.90;;;;;;5018927;28;20112;-76
2021/01/12 01:24:53;;;;;;;26.83;13.45;;;7.40;99.90;;;;;;5020402;28;20100;-81
2021/01/12 01:27:19;;;;;;;24.40;12.75;;;7.40;99.90;;;;;;5031855;28;20029;-77
2021/01/12 01:29:44;;;;;;;24.98;12.02;;;7.50;99.90;;;;;;5029452;28;20029;-77
2021/01/12 01:32:10;;;;;;;19.25;10.82;;;7.50;99.90;;;;;;5017341;28;20042;-74
2021/01/12 01:34:37;;;;;;;21.27;10.45;;;7.50;99.90;;;;;;5019576;28;20386;-74
2021/01/12 01:37:04;;;;;;;18.67;10.93;;;7.50;99.90;;;;;;5026113;28;20029;-80
2021/01/12 01:39:30;;;;;;;17.55;10.55;;;7.50;99.90;;;;;;5028529;28;20023;-76
2021/01/12 01:42:00;;;;;;;16.05;10.07;;;7.60;99.90;;;;;;5025848;28;20492;-76
2021/01/12 01:44:26;;;;;;;19.70;10.32;;;7.60;99.90;;;;;;5023484;28;20021;-75
2021/01/12 01:46:53;;;;;;;18.80;8.65;;;7.50;99.90;;;;;;5025764;28;20496;-75
2021/01/12 01:49:19;;;;;;;18.73;9.65;;;7.60;99.90;;;;;;5029260;28;20022;-76
2021/01/12 01:51:47;;;;;;;18.98;10.15;;;7.60;99.90;;;;;;5025611;28;20367;-74
2021/01/12 01:54:13;;;;;;;20.38;9.93;;;7.60;99.90;;;;;;5020978;28;20064;-76
2021/01/12 01:56:39;;;;;;;19.38;9.25;;;7.60;99.90;;;;;;5028097;28;20509;-76
2021/01/12 01:59:05;;;;;;;18.63;9.02;;;7.60;99.90;;;;;;5020366;28;20026;-79
2021/01/12 02:01:32;;;;;;;16.50;8.80;;;7.70;99.90;;;;;;5030418;28;20021;-78
2021/01/12 02:04:10;;;;;;;13.18;7.65;;;7.70;99.90;;;;;;5025183;28;20064;-74
2021/01/12 02:06:38;;;;;;;16.60;8.23;;;7.70;99.90;;;;;;5024052;28;20616;-74
2021/01/12 02:09:07;;;;;;;14.27;8.07;;;7.70;99.90;;;;;;5021985;28;20061;-74
2021/01/12 02:11:42;;;;;;;13.38;6.90;;;7.70;99.90;;;;;;5026536;28;20029;-75
2021/01/12 02:14:13;;;;;;;11.05;6.82;;;7.70;99.90;;;;;;5023483;28;20042;-79
2021/01/12 02:16:40;;;;;;;14.98;7.07;;;7.70;99.90;;;;;;5027609;28;20479;-74
2021/01/12 02:19:10;;;;;;;16.17;7.55;;;7.70;99.90;;;;;;5019875;28;20018;-74
2021/01/12 02:21:47;;;;;;;8.68;6.25;;;7.70;99.90;;;;;;5034647;28;20026;-74
2021/01/12 02:24:13;;;;;;;11.35;6.95;;;7.70;99.90;;;;;;5027218;28;20483;-74
2021/01/12 02:26:39;;;;;;;11.25;7.30;;;7.70;99.90;;;;;;5025078;28;20029;-74
2021/01/12 02:29:05;;;;;;;9.77;6.80;;;7.80;99.90;;;;;;5031703;28;20026;-75
2021/01/12 02:31:32;;;;;;;7.75;5.78;;;7.80;99.90;;;;;;5033056;28;20067;-75
2021/01/12 02:34:02;;;;;;;10.57;6.53;;;7.70;99.90;;;;;;5033078;28;20099;-74
2021/01/12 02:36:30;;;;;;;9.50;5.65;;;7.70;99.90;;;;;;5026006;28;20024;-74
2021/01/12 02:39:00;;;;;;;7.47;5.32;;;7.80;99.90;;;;;;5036234;28;20470;-75
2021/01/12 02:41:31;;;;;;;6.80;5.07;;;7.80;99.90;;;;;;5024539;28;20018;-80
2021/01/12 02:43:56;;;;;;;9.30;5.55;;;7.90;99.90;;;;;;5027972;28;20036;-78
2021/01/12 02:46:24;;;;;;;6.68;4.65;;;7.90;99.90;;;;;;5029182;28;20075;-80
2021/01/12 02:48:50;;;;;;;7.40;4.53;;;7.80;99.90;;;;;;5030936;28;20470;-75
2021/01/12 02:51:16;;;;;;;7.07;3.92;;;7.80;99.90;;;;;;5031479;28;20022;-75
2021/01/12 02:53:42;;;;;;;6.35;3.67;;;7.80;99.90;;;;;;5023404;28;20044;-74
2021/01/12 02:56:08;;;;;;;5.63;4.65;;;7.80;99.90;;;;;;5023755;28;20081;-77
2021/01/12 02:58:34;;;;;;;4.32;3.60;;;7.70;99.90;;;;;;5030595;28;20511;-76
2021/01/12 03:01:00;;;;;;;6.80;4.20;;;7.80;99.90;;;;;;5029061;28;20029;-77
2021/01/12 03:03:26;;;;;;;6.53;3.42;;;7.80;99.90;;;;;;5034897;28;20049;-76
2021/01/12 03:05:51;;;;;;;4.20;3.72;;;7.80;99.90;;;;;;5028026;28;20472;-75
2021/01/12 03:08:17;;;;;;;5.57;3.92;;;7.90;99.90;;;;;;5022912;28;20385;-77
2021/01/12 03:10:43;;;;;;;6.38;3.90;;;7.90;99.90;;;;;;5025658;28;20474;-75
2021/01/12 03:13:08;;;;;;;6.38;4.20;;;7.90;99.90;;;;;;5033391;28;20087;-77
2021/01/12 03:15:38;;;;;;;5.38;3.75;;;8.00;99.90;;;;;;5028708;28;20038;-76
2021/01/12 03:18:04;;;;;;;4.60;3.90;;;7.90;99.90;;;;;;5031234;28;20486;-80
2021/01/12 03:20:30;;;;;;;6.35;4.20;;;7.90;99.90;;;;;;5028813;28;20052;-80
2021/01/12 03:22:57;;;;;;;6.38;4.00;;;8.00;99.90;;;;;;5031831;28;20469;-75
2021/01/12 03:25:23;;;;;;;8.82;4.38;;;8.00;99.90;;;;;;5025132;28;20034;-75
2021/01/12 03:27:49;;;;;;;6.35;4.57;;;8.00;99.90;;;;;;5029212;28;20029;-74
2021/01/12 03:30:15;;;;;;;11.13;5.28;;;8.00;99.90;;;;;;5029225;28;20026;-74
2021/01/12 03:32:41;;;;;;;7.03;5.10;;;8.00;99.90;;;;;;5027895;28;20386;-74
2021/01/12 03:35:09;;;;;;;5.68;4.82;;;8.00;99.90;;;;;;5029494;28;20411;-73
2021/01/12 03:37:34;;;;;;;6.18;4.88;;;8.10;99.90;;;;;;5024029;28;20014;-76
2021/01/12 03:40:00;;;;;;;6.80;4.78;;;8.00;99.90;;;;;;5028686;28;20489;-79
2021/01/12 03:42:26;;;;;;;9.80;5.15;;;8.00;99.90;;;;;;5021975;28;20037;-75
2021/01/12 03:44:53;;;;;;;6.05;4.38;;;8.10;99.90;;;;;;5025964;28;20370;-77
2021/01/12 03:47:19;;;;;;;6.63;4.50;;;8.10;99.90;;;;;;5019237;28;20498;-83
2021/01/12 03:49:46;;;;;;;5.68;4.57;;;8.20;99.90;;;;;;5021570;28;20100;-80
2021/01/12 03:52:11;;;;;;;7.70;4.68;;;8.20;99.90;;;;;;5023629;28;20030;-73
2021/01/12 03:54:38;;;;;;;5.95;4.40;;;8.20;99.90;;;;;;5023518;28;20103;-74
2021/01/12 03:57:04;;;;;;;5.80;4.05;;;8.10;99.90;;;;;;5029456;28;20394;-78
2021/01/12 03:59:29;;;;;;;7.22;5.20;;;8.10;99.90;;;;;;5022624;28;20033;-74
2021/01/12 04:01:55;;;;;;;5.32;4.38;;;8.10;99.90;;;;;;5027725;28;20029;-76
2021/01/12 04:04:21;;;;;;;8.00;4.43;;;8.20;99.90;;;;;;5026726;28;20022;-77
2021/01/12 04:06:46;;;;;;;10.70;8.88;;;8.20;99.90;;;;;;5019696;28;20065;-78
2021/01/12 04:09:12;;;;;;;8.43;4.93;;;8.20;99.90;;;;;;5028666;28;20029;-75
2021/01/12 04:11:38;;;;;;;5.55;4.40;;;8.20;99.90;;;;;;5030591;28;20022;-75
2021/01/12 04:14:06;;;;;;;8.85;4.53;;;8.30;99.90;;;;;;5032053;28;20144;-75
2021/01/12 04:16:32;;;;;;;7.88;4.65;;;8.30;99.90;;;;;;5022387;28;20426;-77
2021/01/12 04:18:58;;;;;;;5.70;4.80;;;8.30;99.90;;;;;;5026478;28;20029;-76
2021/01/12 04:21:24;;;;;;;5.32;4.03;;;8.30;99.90;;;;;;5031739;28;20526;-75
2021/01/12 04:23:49;;;;;;;6.82;5.43;;;8.30;99.90;;;;;;5025195;28;20124;-78
2021/01/12 04:26:15;;;;;;;5.45;4.10;;;8.30;99.90;;;;;;5028979;28;20109;-75
2021/01/12 04:28:41;;;;;;;5.78;3.97;;;8.30;99.90;;;;;;5031123;28;20030;-78
2021/01/12 04:31:07;;;;;;;6.30;4.82;;;8.30;99.90;;;;;;5019597;28;20536;-74
2021/01/12 04:33:32;;;;;;;7.97;4.13;;;8.30;99.90;;;;;;5027675;28;20049;-73
2021/01/12 04:35:58;;;;;;;7.07;4.53;;;8.30;99.90;;;;;;5027577;28;20040;-74
2021/01/12 04:38:24;;;;;;;4.93;4.00;;;8.30;99.90;;;;;;5025718;28;20056;-74
2021/01/12 04:40:50;;;;;;;5.40;4.05;;;8.40;99.90;;;;;;5032712;28;20028;-75
2021/01/12 04:43:16;;;;;;;8.43;5.15;;;8.40;99.90;;;;;;5027137;28;20037;-73
2021/01/12 04:45:42;;;;;;;7.55;4.63;;;8.30;99.90;;;;;;5027116;28;20038;-74
2021/01/12 04:48:08;;;;;;;6.93;5.07;;;8.30;99.90;;;;;;5028874;28;20486;-74
2021/01/12 04:50:34;;;;;;;8.82;5.82;;;8.30;99.90;;;;;;5028120;28;20474;-75
2021/01/12 04:52:59;;;;;;;10.75;6.45;;;8.50;99.90;;;;;;5027941;28;20044;-75
2021/01/12 04:55:25;;;;;;;8.98;6.03;;;8.50;99.90;;;;;;5019545;28;20065;-74
2021/01/12 04:57:52;;;;;;;7.90;5.40;;;8.40;99.90;;;;;;5018089;28;20034;-77
2021/01/12 05:00:24;;;;;;;7.50;5.10;;;8.50;99.90;;;;;;5024520;28;20017;-76
2021/01/12 05:03:06;;;;;;;10.57;5.32;;;8.40;99.90;;;;;;5027082;28;20025;-74
2021/01/12 05:05:37;;;;;;;9.80;4.97;;;8.50;99.90;;;;;;5021983;28;20030;-73
2021/01/12 05:08:04;;;;;;;6.75;4.38;;;8.50;99.90;;;;;;5020650;28;20032;-82
2021/01/12 05:10:37;;;;;;;9.27;5.55;;;8.50;99.90;;;;;;5025741;28;20126;-79
2021/01/12 05:13:11;;;;;;;5.88;4.18;;;8.50;99.90;;;;;;5025384;28;20034;-78
2021/01/12 05:15:38;;;;;;;8.75;4.70;;;8.50;99.90;;;;;;5021235;28;20084;-84
2021/01/12 05:18:06;;;;;;;5.97;4.40;;;8.50;99.90;;;;;;5027126;28;20149;-77
2021/01/12 05:21:02;;;;;;;9.90;5.20;;;8.50;99.90;;;;;;5022962;28;20490;-83
2021/01/12 05:23:41;;;;;;;5.78;3.92;;;8.60;99.90;;;;;;5021632;28;20053;-78
2021/01/12 05:26:10;;;;;;;7.57;4.43;;;8.60;99.90;;;;;;5024147;28;20052;-82
2021/01/12 05:28:37;;;;;;;7.80;4.78;;;8.60;99.90;;;;;;5020938;28;20057;-77
2021/01/12 05:31:06;;;;;;;6.82;4.45;;;8.60;99.90;;;;;;5023836;28;20033;-84
2021/01/12 05:33:33;;;;;;;9.70;5.32;;;8.60;99.90;;;;;;5030910;28;20507;-85
2021/01/12 05:35:59;;;;;;;12.02;5.25;;;8.70;99.90;;;;;;5022495;28;20030;-76
2021/01/12 05:38:27;;;;;;;8.63;4.75;;;8.70;99.90;;;;;;5020492;28;20112;-76
2021/01/12 05:40:56;;;;;;;8.63;4.68;;;8.60;99.90;;;;;;5028098;28;20032;-77
2021/01/12 05:43:35;;;;;;;7.80;4.38;;;8.60;99.90;;;;;;5032366;28;20394;-78
2021/01/12 05:46:11;;;;;;;8.18;5.68;;;8.60;99.90;;;;;;5021127;28;20033;-78
2021/01/12 05:48:38;;;;;;;6.55;4.53;;;8.60;99.90;;;;;;5027756;28;20561;-83
2021/01/12 05:51:06;;;;;;;9.27;4.70;;;8.60;99.90;;;;;;5036216;28;20024;-76
2021/01/12 05:54:03;;;;;;;6.25;4.50;;;8.60;99.90;;;;;;5027151;28;20394;-79
2021/01/12 05:56:29;;;;;;;6.72;4.50;;;8.60;99.90;;;;;;5018140;28;20046;-79
2021/01/12 05:58:57;;;;;;;6.28;4.47;;;8.60;99.90;;;;;;5019917;28;20034;-81
2021/01/12 06:01:44;;;;;;;4.40;3.10;;;8.60;99.90;;;;;;5024199;28;20045;-76
2021/01/12 06:04:11;;;;;;;8.27;3.60;;;8.60;99.90;;;;;;5019040;28;20033;-75
2021/01/12 06:06:38;;;;;;;6.50;3.88;;;8.60;99.90;;;;;;5024806;28;20037;-78
2021/01/12 06:09:10;;;;;;;5.28;4.32;;;8.70;99.90;;;;;;5023921;28;20035;-75
2021/01/12 06:11:37;;;;;;;10.23;4.72;;;8.70;99.90;;;;;;5020147;28;20022;-78
2021/01/12 06:14:09;;;;;;;8.90;5.03;;;8.70;99.90;;;;;;5028144;28;20441;-76
2021/01/12 06:16:37;;;;;;;8.30;4.93;;;8.80;99.90;;;;;;5030122;28;20521;-75
2021/01/12 06:19:14;;;;;;;7.88;5.30;;;8.80;99.90;;;;;;5017839;28;20056;-74
2021/01/12 06:21:55;;;;;;;8.50;5.90;;;8.80;99.90;;;;;;5023980;28;20030;-76
2021/01/12 06:24:37;;;;;;;9.15;5.43;;;8.80;99.90;;;;;;5026155;28;20033;-80
2021/01/12 06:27:13;;;;;;;6.00;4.43;;;8.80;99.90;;;;;;5015056;28;20037;-76
2021/01/12 06:29:40;;;;;;;7.97;5.55;;;8.80;99.90;;;;;;5024853;28;20612;-76
2021/01/12 06:32:06;;;;;;;9.90;6.15;;;8.80;99.90;;;;;;5025215;28;20071;-78
2021/01/12 06:34:32;;;;;;;8.35;5.38;;;8.80;99.90;;;;;;5023350;28;20061;-78
2021/01/12 06:37:02;;;;;;;8.63;5.65;;;8.80;99.90;;;;;;5024418;28;20560;-76
2021/01/12 06:39:46;;;;;;;9.60;6.25;;;8.90;99.90;;;;;;5022211;28;20095;-74
2021/01/12 06:42:19;;;;;;;9.90;5.95;;;8.90;99.90;;;;;;5018393;28;20042;-74
2021/01/12 06:44:48;;;;;;;11.00;7.45;;;8.90;99.90;;;;;;5017715;28;20030;-75
2021/01/12 06:47:16;;;;;;;9.32;5.57;;;8.90;99.90;;;;;;5019600;28;20071;-75
2021/01/12 06:49:42;;;;;;;12.02;6.10;;;8.80;99.90;;;;;;5029044;28;20048;-75
2021/01/12 06:52:09;;;;;;;8.52;6.18;;;8.80;99.90;;;;;;5022022;28;20025;-75
2021/01/12 06:54:48;;;;;;;8.05;5.57;;;8.80;99.90;;;;;;5021544;28;20502;-76
2021/01/12 06:57:21;;;;;;;9.40;6.10;;;8.80;99.90;;;;;;5018043;28;20022;-76
2021/01/12 06:59:54;;;;;;;14.75;7.30;;;8.90;99.90;;;;;;5020592;28;20429;-75
2021/01/12 07:02:30;;;;;;;8.93;6.85;;;8.80;99.90;;;;;;5019747;28;20026;-74
2021/01/12 07:05:15;;;;;;;8.30;5.85;;;8.90;99.90;;;;;;5020355;28;20030;-75
2021/01/12 07:07:52;;;;;;;12.73;7.30;;;8.90;99.90;;;;;;5026904;28;20032;-75
2021/01/12 07:10:18;;;;;;;13.98;6.22;;;8.80;99.90;;;;;;5030960;28;20021;-75
2021/01/12 07:12:44;;;;;;;10.40;6.47;;;8.80;99.90;;;;;;5022942;28;20121;-75
2021/01/12 07:15:11;;;;;;;14.00;7.40;;;8.70;99.90;;;;;;5038904;28;20542;-77
2021/01/12 07:17:45;;;;;;;13.43;6.55;;;8.90;99.90;;;;;;5023912;28;20478;-76
2021/01/12 07:20:21;;;;;;;15.07;8.27;;;8.90;99.90;;;;;;5028598;28;20485;-76
2021/01/12 07:22:59;;;;;;;13.60;7.78;;;8.90;99.90;;;;;;5029459;28;20033;-76
2021/01/12 07:25:27;;;;;;;14.93;8.60;;;8.90;99.90;;;;;;5028162;28;20113;-80
2021/01/12 07:28:09;;;;;;;15.52;8.73;;;8.80;99.90;;;;;;5026092;28;20116;-82
2021/01/12 07:30:37;;;;;;;13.83;8.50;;;8.80;99.90;;;;;;5027541;28;20021;-86
2021/01/12 07:33:04;;;;;;;15.57;9.68;;;8.80;99.90;;;;;;5024089;28;20120;-82
2021/01/12 07:35:31;;;;;;;17.65;10.50;;;8.90;99.90;;;;;;5028680;28;20104;-77
2021/01/12 07:37:57;;;;;;;18.02;10.38;;;8.90;99.90;;;;;;5031507;28;20048;-77
2021/01/12 07:40:24;;;;;;;21.27;10.75;;;8.90;99.90;;;;;;5020880;28;20030;-82
2021/01/12 07:42:53;;;;;;;21.35;12.35;;;8.90;99.90;;;;;;5031618;28;20413;-81
2021/01/12 07:45:21;;;;;;;22.40;11.35;;;8.90;99.90;;;;;;5033105;28;20108;-81
2021/01/12 07:47:52;;;;;;;15.48;10.00;;;9.00;99.90;;;;;;5017642;28;20018;-77
2021/01/12 07:50:22;;;;;;;21.10;11.50;;;9.00;99.90;;;;;;5025269;28;20029;-80
2021/01/12 07:52:49;;;;;;;18.40;10.98;;;9.00;99.90;;;;;;5022564;28;20025;-79
2021/01/12 07:55:15;;;;;;;21.90;11.00;;;9.10;99.90;;;;;;5024998;28;20033;-75
2021/01/12 07:57:41;;;;;;;15.32;10.13;;;9.10;99.90;;;;;;5031259;28;20517;-78
2021/01/12 08:00:12;;;;;;;19.10;11.05;;;9.20;99.90;;;;;;5025352;28;20029;-77
2021/01/12 08:02:40;;;;;;;20.00;11.68;;;9.10;99.90;;;;;;5013094;28;20234;-77
2021/01/12 08:05:07;;;;;;;19.55;10.25;;;9.20;99.90;;;;;;5020210;28;20029;-76
2021/01/12 08:07:33;;;;;;;19.55;9.30;;;9.20;99.90;;;;;;5023617;28;20034;-79
2021/01/12 08:09:59;;;;;;;27.25;9.98;;;9.20;99.90;;;;;;5025599;28;20036;-78
2021/01/12 08:12:25;;;;;;;21.40;9.85;;;9.20;99.90;;;;;;5023725;28;20026;-77
2021/01/12 08:14:55;;;;;;;15.75;8.65;;;9.20;99.90;;;;;;5024722;28;20410;-83
2021/01/12 08:17:28;;;;;;;17.38;8.82;;;9.20;99.90;;;;;;5033364;28;20346;-78
2021/01/12 08:19:54;;;;;;;;;;;9.20;99.90;;;;;;5023436;28;20029;-77
2021/01/12 08:22:21;;;;;;;21.95;7.78;;;9.30;99.90;;;;;;5030360;28;19908;-78
2021/01/12 08:24:47;;;;;;;16.15;8.32;;;9.30;99.90;;;;;;5018265;28;20470;-78
2021/01/12 08:27:17;;;;;;;16.65;7.22;;;9.20;99.90;;;;;;5024521;28;20028;-78
2021/01/12 08:29:43;;;;;;;17.00;7.25;;;9.20;99.90;;;;;;5020323;28;20386;-79
2021/01/12 08:32:13;;;;;;;19.40;7.18;;;9.30;99.90;;;;;;5025784;28;20033;-79
2021/01/12 08:35:06;;;;;;;18.15;6.75;;;9.20;99.90;;;;;;5029784;28;20029;-79
2021/01/12 08:37:37;;;;;;;26.10;7.43;;;9.20;99.90;;;;;;5028230;28;20021;-77
2021/01/12 08:40:03;;;;;;;18.73;5.25;;;9.30;99.90;;;;;;5019329;28;20075;-75
2021/01/12 08:42:31;;;;;;;18.65;5.70;;;9.30;99.90;;;;;;5022799;28;20080;-76
2021/01/12 08:44:57;;;;;;;11.65;5.53;;;9.20;99.90;;;;;;5024722;28;20490;-76
2021/01/12 08:47:27;;;;;;;10.38;5.65;;;9.20;99.90;;;;;;5028903;28;20030;-76
2021/01/12 08:50:07;;;;;;;21.63;5.68;;;9.20;99.90;;;;;;5027088;28;20037;-77
2021/01/12 08:52:34;;;;;;;12.20;4.80;;;9.20;99.90;;;;;;5020335;28;21494;-76
2021/01/12 08:55:01;;;;;;;13.70;5.35;;;9.10;99.90;;;;;;5024221;28;20148;-77
2021/01/12 08:57:26;;;;;;;14.40;5.03;;;9.20;99.90;;;;;;5017811;28;20525;-76
2021/01/12 08:59:52;;;;;;;10.35;4.28;;;9.20;99.90;;;;;;5023526;28;20029;-76
2021/01/12 09:02:21;;;;;;;8.77;3.72;;;9.30;99.90;;;;;;5031686;28;20025;-76
2021/01/12 09:04:59;;;;;;;7.88;3.67;;;9.20;99.90;;;;;;5024694;28;20052;-76
2021/01/12 09:07:25;;;;;;;12.65;3.80;;;9.20;99.90;;;;;;5021990;28;20025;-76
2021/01/12 09:09:54;;;;;;;9.98;3.42;;;9.20;99.90;;;;;;5021194;28;20389;-75
2021/01/12 09:12:20;;;;;;;6.45;3.45;;;9.20;99.90;;;;;;5019857;28;20493;-76
2021/01/12 09:14:49;;;;;;;9.52;3.65;;;9.20;99.90;;;;;;5023735;28;20049;-76
2021/01/12 09:17:16;;;;;;;13.48;5.00;;;9.20;99.90;;;;;;5028681;28;20144;-75
2021/01/12 09:19:43;;;;;;;9.82;4.38;;;9.30;99.90;;;;;;5026009;28;20021;-75
2021/01/12 09:22:16;;;;;;;13.07;5.10;;;9.30;99.90;;;;;;5031516;28;20378;-75
2021/01/12 09:24:47;;;;;;;12.85;5.93;;;9.20;99.90;;;;;;5026293;28;20021;-77
2021/01/12 09:27:27;;;;;;;12.15;4.82;;;9.20;99.90;;;;;;5029878;28;20041;-77
2021/01/12 09:29:53;;;;;;;14.02;5.63;;;9.10;99.90;;;;;;5024643;28;20022;-76
2021/01/12 09:32:34;;;;;;;16.30;6.78;;;9.20;99.90;;;;;;5028311;28;20029;-77
2021/01/12 09:35:00;;;;;;;11.25;5.65;;;9.20;99.90;;;;;;5033283;28;20033;-77
2021/01/12 09:37:26;;;;;;;13.63;6.40;;;9.20;99.90;;;;;;5024308;28;20128;-77
2021/01/12 09:39:56;;;;;;;12.85;7.28;;;9.20;99.90;;;;;;5023312;28;20026;-76
2021/01/12 09:42:27;;;;;;;13.43;7.38;;;9.30;99.90;;;;;;5029380;28;20375;-76
2021/01/12 09:44:54;;;;;;;18.83;8.05;;;9.30;99.90;;;;;;5027150;28;20095;-76
2021/01/12 09:47:21;;;;;;;15.10;7.75;;;9.30;99.90;;;;;;5026062;28;20033;-77
2021/01/12 09:49:47;;;;;;;16.60;8.35;;;9.20;99.90;;;;;;5022307;28;20053;-76
2021/01/12 09:52:15;;;;;;;17.35;8.10;;;9.20;99.90;;;;;;5026161;28;20021;-77
2021/01/12 09:54:46;;;;;;;16.58;9.07;;;9.20;99.90;;;;;;5019234;28;20040;-77
2021/01/12 09:57:13;;;;;;;19.60;9.27;;;9.20;99.90;;;;;;5025151;28;20025;-77
2021/01/12 09:59:39;;;;;;;11.75;7.30;;;9.20;99.90;;;;;;5020063;28;20057;-76
2021/01/12 10:02:05;;;;;;;14.35;8.63;;;9.30;99.90;;;;;;5022263;28;20045;-79
2021/01/12 10:04:30;;;;;;;16.95;8.60;;;9.20;99.90;;;;;;5017514;28;20359;-77
2021/01/12 10:07:00;;;;;;;19.85;10.27;;;9.20;99.90;;;;;;5022145;28;20037;-77
2021/01/12 10:09:26;;;;;;;17.85;9.63;;;9.30;99.90;;;;;;5020584;28;20374;-77
2021/01/12 10:11:53;;;;;;;11.68;7.70;;;9.20;99.90;;;;;;5024839;28;20466;-77
2021/01/12 10:14:19;;;;;;;14.63;7.35;;;9.00;99.90;;;;;;5024424;28;20552;-77
2021/01/12 10:16:46;;;;;;;10.35;7.03;;;9.10;99.90;;;;;;5023749;28;20033;-76
2021/01/12 10:19:13;;;;;;;9.20;6.78;;;9.10;99.90;;;;;;5020296;28;20475;-76
2021/01/12 10:21:38;;;;;;;9.32;6.55;;;9.10;99.90;;;;;;5013963;28;20017;-77
2021/01/12 10:24:05;;;;;;;12.13;7.60;;;9.20;99.90;;;;;;5022676;28;20026;-77
2021/01/12 10:26:31;;;;;;;16.65;6.63;;;9.20;99.90;;;;;;5019556;28;20121;-76
2021/01/12 10:28:56;;;;;;;11.50;6.85;;;9.20;99.90;;;;;;5021999;28;20112;-77
2021/01/12 10:31:23;;;;;;;9.45;6.35;;;9.20;99.90;;;;;;5025199;28;20036;-78
2021/01/12 10:33:50;;;;;;;11.23;5.68;;;9.20;99.90;;;;;;5030595;28;20143;-78
2021/01/12 10:36:17;;;;;;;12.15;6.47;;;9.20;99.90;;;;;;5024540;28;20560;-77
2021/01/12 10:38:44;;;;;;;8.88;5.90;;;9.20;99.90;;;;;;5026018;28;20480;-78
2021/01/12 10:41:09;;;;;;;9.13;6.25;;;9.20;99.90;;;;;;5029732;28;20021;-77
2021/01/12 10:43:36;;;;;;;7.47;4.43;;;9.30;99.90;;;;;;5033791;28;20028;-76
2021/01/12 10:46:02;;;;;;;7.75;4.78;;;9.30;99.90;;;;;;5024889;28;20592;-76
2021/01/12 10:48:28;;;;;;;6.05;4.07;;;9.30;99.90;;;;;;5024478;28;20025;-77
2021/01/12 10:50:54;;;;;;;6.93;4.20;;;9.20;99.90;;;;;;5025693;28;20510;-78
2021/01/12 10:53:20;;;;;;;5.32;4.28;;;9.10;99.90;;;;;;5024505;28;20409;-77
2021/01/12 10:55:46;;;;;;;6.00;4.35;;;9.20;99.90;;;;;;5025284;28;20021;-76
2021/01/12 10:58:12;;;;;;;6.18;4.05;;;9.20;99.90;;;;;;5026143;28;20026;-78
2021/01/12 11:00:38;;;;;;;5.63;4.35;;;9.20;99.90;;;;;;5029138;28;20032;-76
2021/01/12 11:03:07;;;;;;;6.65;5.10;;;9.20;99.90;;;;;;5027033;28;20026;-77
2021/01/12 11:05:34;;;;;;;10.27;5.13;;;9.10;99.90;;;;;;5029093;28;20379;-77
2021/01/12 11:08:00;;;;;;;6.88;5.22;;;9.10;99.90;;;;;;5027889;28;20029;-80
2021/01/12 11:10:26;;;;;;;10.23;5.55;;;9.00;99.90;;;;;;5024264;28;20564;-75
2021/01/12 11:12:52;;;;;;;10.13;4.20;;;9.00;99.90;;;;;;5025776;28;20033;-76
2021/01/12 11:15:18;;;;;;;3.67;3.38;;;8.90;99.90;;;;;;5021965;28;20735;-77
2021/01/12 11:17:47;;;;;;;9.00;4.30;;;8.90;99.90;;;;;;5019392;28;20025;-77
2021/01/12 11:20:13;;;;;;;6.20;3.08;;;8.90;99.90;;;;;;5028123;28;20048;-80
2021/01/12 11:22:40;;;;;;;3.97;2.13;;;8.90;99.90;;;;;;5025667;28;20025;-78
2021/01/12 11:25:06;;;;;;;3.75;1.92;;;8.90;99.90;;;;;;5026405;28;20036;-80
2021/01/12 11:27:35;;;;;;;3.75;1.70;;;8.90;99.90;;;;;;5018850;28;20057;-80
2021/01/12 11:30:01;;;;;;;4.57;1.70;;;8.90;99.90;;;;;;5028850;28;20025;-77
2021/01/12 11:32:32;;;;;;;4.78;1.15;;;9.00;99.90;;;;;;5031922;28;20108;-79
2021/01/12 11:34:58;;;;;;;5.95;1.27;;;9.00;99.90;;;;;;5025619;28;20021;-78
2021/01/12 11:37:23;;;;;;;4.47;1.23;;;9.00;99.90;;;;;;5028969;28;20029;-78
2021/01/12 11:39:49;;;;;;;2.88;1.60;;;9.00;99.90;;;;;;5031328;28;20425;-77
2021/01/12 11:42:15;;;;;;;6.03;1.90;;;9.10;99.90;;;;;;5027086;28;20067;-77
2021/01/12 11:44:41;;;;;;;7.10;1.42;;;9.00;99.90;;;;;;5031128;28;20033;-78
2021/01/12 11:47:07;;;;;;;4.38;1.55;;;9.00;99.90;;;;;;5027033;28;20093;-77
2021/01/12 11:49:34;;;;;;;4.30;1.50;;;9.10;99.90;;;;;;5027813;28;20033;-79
2021/01/12 11:52:04;;;;;;;5.90;1.33;;;9.10;99.90;;;;;;5023922;28;20036;-76
2021/01/12 11:54:30;;;;;;;6.28;1.70;;;9.20;99.90;;;;;;5023682;28;20033;-77
2021/01/12 11:56:56;;;;;;;4.15;1.40;;;9.10;99.90;;;;;;5032374;28;20394;-78
2021/01/12 11:59:25;;;;;;;5.03;1.35;;;9.00;99.90;;;;;;5019605;28;20030;-77
2021/01/12 12:01:55;;;;;;;2.53;0.90;;;8.90;99.90;;;;;;5024469;28;20072;-77
2021/01/12 12:04:24;;;;;;;8.15;1.25;;;8.70;99.90;;;;;;5024345;28;20477;-75
2021/01/12 12:06:52;;;;;;;1.85;0.73;;;8.60;99.90;;;;;;5035816;28;20038;-78
2021/01/12 12:09:18;;;;;;;5.18;1.30;;;8.60;99.90;;;;;;5030450;28;20378;-78
2021/01/12 12:11:45;;;;;;;6.50;1.17;;;8.60;99.90;;;;;;5027250;28;20475;-76
2021/01/12 12:14:11;;;;;;;5.10;1.33;;;8.50;99.90;;;;;;5034866;28;20048;-77
2021/01/12 12:16:38;;;;;;;12.02;1.10;;;8.50;99.90;;;;;;5036233;28;20021;-77
2021/01/12 12:19:05;;;;;;;4.90;1.30;;;8.50;99.90;;;;;;5027843;28;20457;-79
2021/01/12 12:21:31;;;;;;;3.58;1.25;;;8.60;99.90;;;;;;5027328;28;20443;-76
2021/01/12 12:23:56;;;;;;;5.57;1.20;;;8.70;99.90;;;;;;5015952;28;20026;-78
2021/01/12 12:26:22;;;;;;;4.38;1.08;;;8.70;99.90;;;;;;5025552;28;20086;-76
2021/01/12 12:28:48;;;;;;;9.38;1.48;;;8.70;99.90;;;;;;5022615;28;20034;-78
2021/01/12 12:31:14;;;;;;;4.22;1.20;;;8.70;99.90;;;;;;5024530;28;20053;-76
2021/01/12 12:33:40;;;;;;;4.68;1.38;;;8.80;99.90;;;;;;5030011;28;20037;-76
2021/01/12 12:36:15;;;;;;;3.55;1.42;;;8.90;99.90;;;;;;5022288;28;20029;-83
2021/01/12 12:38:41;;;;;;;3.58;1.17;;;8.70;99.90;;;;;;5029432;28;20057;-79
2021/01/12 12:41:12;;;;;;;2.83;1.40;;;8.60;99.90;;;;;;5032826;28;20056;-77
2021/01/12 12:43:39;;;;;;;4.95;1.40;;;8.60;99.90;;;;;;5032267;28;20087;-76
2021/01/12 12:46:06;;;;;;;2.92;1.20;;;8.70;99.90;;;;;;5031870;28;20168;-78
2021/01/12 12:48:33;;;;;;;7.80;1.00;;;8.60;99.90;;;;;;5034385;28;20033;-76
2021/01/12 12:50:59;;;;;;;4.47;0.95;;;8.50;99.90;;;;;;5024963;28;20057;-76
2021/01/12 12:53:26;;;;;;;6.97;1.13;;;8.40;99.90;;;;;;5021497;28;20041;-80
2021/01/12 12:55:52;;;;;;;8.13;0.80;;;8.30;99.90;;;;;;5023388;28;20069;-76